Time;durP1;ratioP1;P1;durP2;ratioP2;P2;SDS_P1;SDS_P2;PMS_P1;PMS_P2;Temp;Humidity;BMP_temperature;BMP_pressure;BME280_temperature;BME280_humidity;BME280_pressure;Samples;Min_cycle;Max_cycle;Signal;HPM_P1;HPM_P2
2021/07/29 00:00:26;;;;;;;4.25;2.65;;;13.60;99.90;;;;;;6243145;22;20430;-84
2021/07/29 00:03:06;;;;;;;3.35;3.05;;;13.60;99.90;;;;;;6239530;22;20016;-83
2021/07/29 00:05:39;;;;;;;3.38;2.50;;;13.60;99.90;;;;;;6316630;22;20320;-83
2021/07/29 00:08:09;;;;;;;4.97;3.35;;;13.50;99.90;;;;;;6276969;22;20027;-83
2021/07/29 00:10:40;;;;;;;2.38;2.17;;;13.50;99.90;;;;;;6314814;22;20062;-83
2021/07/29 00:13:08;;;;;;;3.50;3.20;;;13.50;99.90;;;;;;6316492;22;20020;-83
2021/07/29 00:15:36;;;;;;;3.70;2.95;;;13.50;99.90;;;;;;6311149;22;20023;-83
2021/07/29 00:20:45;;;;;;;25.90;6.93;;;13.50;99.90;;;;;;6277307;22;20030;-83
2021/07/29 00:23:13;;;;;;;3.85;2.35;;;13.30;99.90;;;;;;6286003;22;20012;-83
2021/07/29 00:25:41;;;;;;;3.65;1.65;;;13.20;99.90;;;;;;6317268;22;20007;-83
2021/07/29 00:28:11;;;;;;;2.37;2.17;;;13.10;99.90;;;;;;6308396;22;20019;-83
2021/07/29 00:30:39;;;;;;;3.42;2.97;;;13.00;99.90;;;;;;6314588;22;20022;-83
2021/07/29 00:33:07;;;;;;;3.58;2.95;;;13.20;99.90;;;;;;6315524;22;20011;-83
2021/07/29 00:35:35;;;;;;;4.07;2.50;;;13.10;99.90;;;;;;6310896;22;20038;-83
2021/07/29 00:38:03;;;;;;;5.30;4.90;;;13.20;99.90;;;;;;6316583;22;20026;-83
2021/07/29 00:40:31;;;;;;;3.50;2.80;;;13.30;99.90;;;;;;6276859;22;20042;-83
2021/07/29 00:43:03;;;;;;;2.97;2.60;;;13.30;99.90;;;;;;6304485;22;20019;-83
2021/07/29 00:45:30;;;;;;;2.72;2.50;;;13.30;99.90;;;;;;6316651;22;20375;-83
2021/07/29 00:47:58;;;;;;;8.10;5.18;;;13.30;99.90;;;;;;6307951;22;20031;-83
2021/07/29 00:50:36;;;;;;;1.73;1.48;;;13.10;99.90;;;;;;6314035;22;20029;-83
2021/07/29 00:53:06;;;;;;;3.53;2.33;;;13.00;99.90;;;;;;6277433;22;20023;-83
2021/07/29 00:55:34;;;;;;;5.40;2.28;;;13.00;99.90;;;;;;6275892;22;20038;-83
2021/07/29 00:58:02;;;;;;;3.80;2.53;;;13.00;99.90;;;;;;6312464;22;20041;-83
2021/07/29 01:00:30;;;;;;;2.65;2.05;;;12.90;99.90;;;;;;6306129;22;20026;-83
2021/07/29 01:03:00;;;;;;;2.28;2.08;;;12.90;99.90;;;;;;6312687;22;20026;-83
2021/07/29 01:05:31;;;;;;;3.97;2.38;;;13.00;99.90;;;;;;6277593;22;20011;-83
2021/07/29 01:07:59;;;;;;;2.58;2.38;;;12.90;99.90;;;;;;6309013;22;20026;-83
2021/07/29 01:10:27;;;;;;;3.95;2.35;;;12.80;99.90;;;;;;6315880;22;20019;-82
2021/07/29 01:12:54;;;;;;;5.25;2.35;;;12.60;99.90;;;;;;6276467;22;20016;-82
2021/07/29 01:15:22;;;;;;;2.30;1.80;;;12.60;99.90;;;;;;6303931;22;20026;-83
2021/07/29 01:17:50;;;;;;;3.17;2.45;;;12.60;99.90;;;;;;6315527;22;20030;-83
2021/07/29 01:20:20;;;;;;;3.33;2.45;;;12.60;99.90;;;;;;6307378;22;20023;-83
2021/07/29 01:22:50;;;;;;;4.80;2.00;;;12.70;99.90;;;;;;6314036;22;20042;-83
2021/07/29 01:25:18;;;;;;;2.83;1.90;;;12.80;99.90;;;;;;6315741;22;20304;-83
2021/07/29 01:27:45;;;;;;;4.55;3.47;;;12.70;99.90;;;;;;6309460;22;20346;-82
2021/07/29 01:30:14;;;;;;;3.90;2.13;;;12.70;99.90;;;;;;6288946;22;20015;-83
2021/07/29 01:32:42;;;;;;;3.00;2.53;;;12.70;99.90;;;;;;6277832;22;20020;-83
2021/07/29 01:35:11;;;;;;;5.60;2.83;;;12.70;99.90;;;;;;6312415;22;20016;-83
2021/07/29 01:37:41;;;;;;;3.80;2.63;;;12.70;99.90;;;;;;6315994;22;20019;-83
2021/07/29 01:40:10;;;;;;;3.13;2.58;;;12.70;99.90;;;;;;6276292;22;20618;-83
2021/07/29 01:42:37;;;;;;;4.78;2.63;;;12.60;99.90;;;;;;6286723;22;20018;-83
2021/07/29 01:45:06;;;;;;;2.15;1.70;;;12.60;99.90;;;;;;6315963;22;20425;-83
2021/07/29 01:47:33;;;;;;;2.63;2.10;;;12.50;99.90;;;;;;6309617;22;20027;-83
2021/07/29 01:50:05;;;;;;;4.97;3.22;;;12.50;99.90;;;;;;6316072;22;20008;-83
2021/07/29 01:52:37;;;;;;;3.83;3.00;;;12.60;99.90;;;;;;6277087;22;20481;-83
2021/07/29 01:55:06;;;;;;;2.05;1.85;;;12.50;99.90;;;;;;6251204;22;20022;-83
2021/07/29 01:57:36;;;;;;;3.88;2.58;;;12.50;99.90;;;;;;6251787;22;20038;-83
2021/07/29 02:00:05;;;;;;;3.22;2.10;;;12.50;99.90;;;;;;6276861;22;20038;-83
2021/07/29 02:02:39;;;;;;;8.00;2.00;;;12.50;99.90;;;;;;6303611;22;20030;-83
2021/07/29 02:05:07;;;;;;;6.90;2.17;;;12.50;99.90;;;;;;6315556;22;20019;-83
2021/07/29 02:07:35;;;;;;;3.65;2.15;;;12.60;99.90;;;;;;6283318;22;20030;-83
2021/07/29 02:10:06;;;;;;;3.47;2.22;;;12.60;99.90;;;;;;6315395;22;20016;-84
2021/07/29 02:12:35;;;;;;;2.40;1.83;;;12.60;99.90;;;;;;6275803;22;20030;-84
2021/07/29 02:15:07;;;;;;;10.80;2.30;;;12.60;99.90;;;;;;6312645;22;20350;-83
2021/07/29 02:17:35;;;;;;;2.50;1.85;;;12.70;99.90;;;;;;6314457;22;20026;-84
2021/07/29 02:20:04;;;;;;;1.60;1.50;;;12.70;99.90;;;;;;6308216;22;20030;-83
2021/07/29 02:22:31;;;;;;;2.42;2.22;;;12.80;99.90;;;;;;6314578;22;20011;-83
2021/07/29 02:24:59;;;;;;;2.03;1.50;;;12.90;99.90;;;;;;6314762;22;20011;-83
2021/07/29 02:27:27;;;;;;;3.50;2.47;;;13.00;99.90;;;;;;6310737;22;20584;-83
2021/07/29 02:29:57;;;;;;;11.23;2.25;;;13.00;99.90;;;;;;6315483;22;20457;-83
2021/07/29 02:32:25;;;;;;;2.85;2.10;;;13.10;99.90;;;;;;6310690;22;20022;-93
2021/07/29 02:34:54;;;;;;;3.10;2.22;;;13.10;99.90;;;;;;6229856;22;20445;-93
2021/07/29 02:37:23;;;;;;;2.28;2.10;;;13.10;99.90;;;;;;6256495;22;20015;-93
2021/07/29 02:39:50;;;;;;;3.97;2.10;;;13.10;99.90;;;;;;6285644;22;20027;-93
2021/07/29 02:46:47;;;;;;;3.58;2.65;;;13.00;99.90;;;;;;6252074;22;20018;-94
2021/07/29 02:49:15;;;;;;;2.28;1.63;;;13.00;99.90;;;;;;6228509;22;20022;-83
2021/07/29 02:51:43;;;;;;;3.63;1.58;;;13.00;99.90;;;;;;6276088;22;20026;-83
2021/07/29 02:54:10;;;;;;;2.95;1.85;;;13.00;99.90;;;;;;6315725;22;20008;-83
2021/07/29 02:56:38;;;;;;;2.83;2.15;;;13.00;99.90;;;;;;6304477;22;20236;-83
2021/07/29 02:59:06;;;;;;;2.33;1.80;;;13.10;99.90;;;;;;6311182;22;20481;-83
2021/07/29 03:01:34;;;;;;;6.57;2.92;;;13.10;99.90;;;;;;6276189;22;20026;-83
2021/07/29 03:04:02;;;;;;;10.30;2.28;;;13.10;99.90;;;;;;6307734;22;20015;-83
2021/07/29 03:06:32;;;;;;;2.97;2.35;;;13.10;99.90;;;;;;6314466;22;20008;-82
2021/07/29 03:09:00;;;;;;;2.80;2.30;;;13.00;99.90;;;;;;6276145;22;20015;-83
2021/07/29 03:11:28;;;;;;;3.17;1.40;;;13.00;99.90;;;;;;6282755;22;20023;-84
2021/07/29 03:13:55;;;;;;;6.28;2.53;;;13.00;99.90;;;;;;6314816;22;20011;-83
2021/07/29 03:16:26;;;;;;;5.33;3.13;;;12.90;99.90;;;;;;6305159;22;20019;-83
2021/07/29 03:18:54;;;;;;;3.63;2.22;;;12.90;99.90;;;;;;6312593;22;20012;-83
2021/07/29 03:21:26;;;;;;;2.33;2.13;;;12.90;99.90;;;;;;6314709;22;20007;-83
2021/07/29 03:23:54;;;;;;;8.05;2.13;;;12.90;99.90;;;;;;6308340;22;20027;-83
2021/07/29 03:26:22;;;;;;;6.55;2.30;;;12.90;99.90;;;;;;6287707;22;20019;-83
2021/07/29 03:28:49;;;;;;;1.92;1.63;;;12.90;99.90;;;;;;6276876;22;20023;-84
2021/07/29 03:31:17;;;;;;;2.25;2.00;;;12.80;99.90;;;;;;6310138;22;20019;-83
2021/07/29 03:33:45;;;;;;;3.40;1.50;;;12.80;99.90;;;;;;6315215;22;20015;-84
2021/07/29 03:36:16;;;;;;;2.30;1.90;;;12.70;99.90;;;;;;6306671;22;20015;-84
2021/07/29 03:38:47;;;;;;;2.05;1.65;;;12.60;99.90;;;;;;6312679;22;20025;-84
2021/07/29 03:41:15;;;;;;;9.07;1.77;;;12.50;99.90;;;;;;6314525;22;20034;-85
2021/07/29 03:43:50;;;;;;;2.72;1.92;;;12.50;99.90;;;;;;6308362;22;20030;-84
2021/07/29 03:46:19;;;;;;;4.90;3.40;;;12.50;99.90;;;;;;6314331;22;20022;-84
2021/07/29 03:49:36;;;;;;;7.97;2.28;;;12.50;99.90;;;;;;6277024;22;20349;-84
2021/07/29 03:52:47;;;;;;;3.63;3.17;;;12.50;99.90;;;;;;6262859;22;20020;-84
2021/07/29 03:55:17;;;;;;;12.02;2.83;;;12.60;99.90;;;;;;6310535;22;20019;-84
2021/07/29 03:58:16;;;;;;;3.05;2.00;;;12.70;99.90;;;;;;6303464;22;20019;-84
2021/07/29 04:00:46;;;;;;;4.05;2.03;;;12.70;99.90;;;;;;6304111;22;20031;-84
2021/07/29 04:03:17;;;;;;;18.67;1.85;;;12.70;99.90;;;;;;6310057;22;20338;-84
2021/07/29 04:05:46;;;;;;;2.55;1.88;;;12.60;99.90;;;;;;6314410;22;20015;-84
2021/07/29 04:08:17;;;;;;;3.55;1.60;;;12.60;99.90;;;;;;6306139;22;20090;-84
2021/07/29 04:10:47;;;;;;;1.50;1.20;;;12.50;99.90;;;;;;6312700;22;20011;-84
2021/07/29 04:13:15;;;;;;;0.80;0.80;;;12.50;99.90;;;;;;6314836;22;20015;-84
2021/07/29 04:15:46;;;;;;;2.88;1.65;;;12.50;99.90;;;;;;6303875;22;20025;-84
2021/07/29 04:18:15;;;;;;;4.50;2.83;;;12.50;99.90;;;;;;6288783;22;20011;-84
2021/07/29 04:20:48;;;;;;;1.95;1.80;;;12.50;99.90;;;;;;6305302;22;20034;-84
2021/07/29 04:23:17;;;;;;;2.33;2.03;;;12.50;99.90;;;;;;6285521;22;20015;-84
2021/07/29 04:26:25;;;;;;;2.15;2.00;;;12.60;99.90;;;;;;6290410;22;20015;-87
2021/07/29 04:30:29;;;;;;;2.60;2.28;;;12.60;99.90;;;;;;6145812;23;20445;-87
2021/07/29 04:47:07;;;;;;;2.15;1.95;;;12.80;99.90;;;;;;6140274;23;20024;-84
2021/07/29 04:49:43;;;;;;;4.80;2.00;;;12.80;99.90;;;;;;6126719;23;20047;-82
2021/07/29 04:52:13;;;;;;;5.28;2.65;;;12.90;99.90;;;;;;6152484;23;20029;-81
2021/07/29 04:54:42;;;;;;;4.13;2.40;;;13.10;99.90;;;;;;6125442;23;20480;-81
2021/07/29 04:57:09;;;;;;;3.25;2.78;;;13.20;99.90;;;;;;6248048;22;20350;-81
2021/07/29 04:59:41;;;;;;;3.22;2.67;;;13.40;99.90;;;;;;6308786;22;20446;-81
2021/07/29 05:02:09;;;;;;;2.60;2.40;;;13.40;99.90;;;;;;6314634;22;20018;-81
2021/07/29 05:04:37;;;;;;;2.33;1.80;;;13.40;99.90;;;;;;6306172;22;20027;-81
2021/07/29 05:07:05;;;;;;;2.03;1.92;;;13.40;99.90;;;;;;6311670;22;20027;-81
2021/07/29 05:09:32;;;;;;;3.67;3.30;;;13.50;99.90;;;;;;6306616;22;20430;-82
2021/07/29 05:12:01;;;;;;;5.07;2.03;;;13.60;99.90;;;;;;6307942;22;20031;-82
2021/07/29 05:14:29;;;;;;;2.58;2.15;;;13.70;99.90;;;;;;6275585;22;20015;-82
2021/07/29 05:17:01;;;;;;;2.38;1.73;;;13.80;99.90;;;;;;6248863;22;20430;-81
2021/07/29 05:19:34;;;;;;;2.90;2.60;;;13.80;99.90;;;;;;6282627;22;20011;-82
2021/07/29 05:22:02;;;;;;;3.85;2.67;;;13.90;99.90;;;;;;6314868;22;20018;-82
2021/07/29 05:24:30;;;;;;;2.80;2.65;;;14.00;99.90;;;;;;6306539;22;20015;-82
2021/07/29 05:26:58;;;;;;;6.65;4.15;;;14.10;99.90;;;;;;6311631;22;20366;-81
2021/07/29 05:29:26;;;;;;;3.88;2.58;;;14.30;99.90;;;;;;6226389;22;20360;-82
2021/07/29 05:31:54;;;;;;;3.15;2.85;;;14.40;99.90;;;;;;6250985;22;20023;-82
2021/07/29 05:34:21;;;;;;;2.88;2.63;;;14.50;99.90;;;;;;6276894;22;20019;-81
2021/07/29 05:36:49;;;;;;;2.97;2.38;;;14.60;99.90;;;;;;6304606;22;20019;-81
2021/07/29 05:39:17;;;;;;;4.07;3.25;;;14.70;99.90;;;;;;6311520;22;20018;-82
2021/07/29 05:41:44;;;;;;;4.00;2.60;;;14.90;99.90;;;;;;6314974;22;20015;-83
2021/07/29 05:44:12;;;;;;;3.67;3.28;;;15.00;99.90;;;;;;6307359;22;20054;-82
2021/07/29 05:46:40;;;;;;;3.30;3.03;;;15.20;99.90;;;;;;6313357;22;20012;-83
2021/07/29 05:49:08;;;;;;;3.72;2.90;;;15.30;99.90;;;;;;6288188;22;20007;-83
2021/07/29 05:51:36;;;;;;;2.50;2.30;;;15.40;99.90;;;;;;6309775;22;20026;-83
2021/07/29 05:54:03;;;;;;;2.63;2.30;;;15.50;99.90;;;;;;6277247;22;20011;-84
2021/07/29 05:56:31;;;;;;;2.92;2.58;;;15.80;99.90;;;;;;6250297;22;20023;-84
2021/07/29 05:59:00;;;;;;;3.10;2.50;;;15.80;99.90;;;;;;6276785;22;20019;-84
2021/07/29 06:01:28;;;;;;;5.95;2.60;;;15.80;99.90;;;;;;6314181;22;20022;-83
2021/07/29 06:03:56;;;;;;;4.15;3.75;;;15.70;99.90;;;;;;6281535;22;20031;-83
2021/07/29 06:06:23;;;;;;;8.68;4.47;;;15.80;99.90;;;;;;6288056;22;20015;-83
2021/07/29 06:08:57;;;;;;;3.03;2.45;;;15.70;99.90;;;;;;6303698;22;20027;-83
2021/07/29 06:11:25;;;;;;;4.75;2.45;;;15.90;99.90;;;;;;6310221;22;20324;-82
2021/07/29 06:13:54;;;;;;;2.75;2.25;;;16.20;99.90;;;;;;6315334;22;20446;-82
2021/07/29 06:16:22;;;;;;;3.35;3.03;;;16.20;99.90;;;;;;6278480;22;20023;-81
2021/07/29 06:21:37;;;;;;;2.38;2.17;;;16.40;99.90;;;;;;6314953;22;20016;-81
2021/07/29 06:24:04;;;;;;;5.68;2.90;;;16.50;99.90;;;;;;6280867;22;20026;-81
2021/07/29 06:26:33;;;;;;;2.60;2.40;;;16.70;99.90;;;;;;6314243;22;20012;-81
2021/07/29 06:29:01;;;;;;;3.20;2.30;;;17.00;99.90;;;;;;6251475;22;20011;-81
2021/07/29 06:31:29;;;;;;;4.20;3.25;;;17.20;99.90;;;;;;6281693;22;20016;-81
2021/07/29 06:33:59;;;;;;;4.65;2.40;;;17.20;99.90;;;;;;6315358;22;20037;-81
2021/07/29 06:36:26;;;;;;;4.30;2.58;;;17.20;99.90;;;;;;6306116;22;20027;-81
2021/07/29 06:38:54;;;;;;;2.15;1.95;;;17.20;99.90;;;;;;6285266;22;20016;-81
2021/07/29 06:41:22;;;;;;;3.17;1.80;;;17.40;99.90;;;;;;6287252;22;20510;-80
2021/07/29 06:43:49;;;;;;;6.03;2.15;;;17.60;99.90;;;;;;6275525;22;20019;-81
2021/07/29 06:46:17;;;;;;;3.80;2.63;;;17.70;99.90;;;;;;6314139;22;20011;-80
2021/07/29 06:48:45;;;;;;;3.85;2.63;;;17.90;99.90;;;;;;6304237;22;20015;-80
2021/07/29 06:51:12;;;;;;;2.03;1.60;;;18.00;99.90;;;;;;6274960;22;20030;-81
2021/07/29 06:53:40;;;;;;;2.15;1.90;;;18.00;99.90;;;;;;6275528;22;20015;-80
2021/07/29 06:56:09;;;;;;;1.60;1.50;;;17.70;99.90;;;;;;6306995;22;20067;-80
2021/07/29 06:58:36;;;;;;;5.93;2.15;;;17.70;99.90;;;;;;6303670;22;20027;-79
2021/07/29 07:01:05;;;;;;;4.45;2.83;;;17.90;99.90;;;;;;6286769;22;20462;-80
2021/07/29 07:03:34;;;;;;;2.05;1.73;;;18.10;99.90;;;;;;6309478;22;20429;-80
2021/07/29 07:06:07;;;;;;;3.17;1.80;;;18.30;99.90;;;;;;6315149;22;20015;-80
2021/07/29 07:08:35;;;;;;;2.55;2.28;;;18.20;99.90;;;;;;6305062;22;20031;-80
2021/07/29 07:11:03;;;;;;;3.63;2.45;;;18.10;99.90;;;;;;6284018;22;20023;-80
2021/07/29 07:13:30;;;;;;;5.55;1.92;;;18.40;99.90;;;;;;6314410;22;20011;-80
2021/07/29 07:15:58;;;;;;;2.47;2.25;;;18.70;99.90;;;;;;6275565;22;20027;-80
2021/07/29 07:18:26;;;;;;;7.93;2.38;;;18.90;99.90;;;;;;6287163;22;20026;-79
2021/07/29 07:21:03;;;;;;;3.53;1.90;;;18.90;99.90;;;;;;6275021;22;20023;-80
2021/07/29 07:23:31;;;;;;;2.55;2.05;;;19.20;99.90;;;;;;6226198;22;20015;-80
2021/07/29 07:25:58;;;;;;;2.83;2.05;;;19.30;99.90;;;;;;6314905;22;20015;-80
2021/07/29 07:28:31;;;;;;;2.92;1.88;;;19.70;99.90;;;;;;6278368;22;20015;-80
2021/07/29 07:30:59;;;;;;;2.35;2.15;;;20.30;99.90;;;;;;6250168;22;20023;-80
2021/07/29 07:33:27;;;;;;;2.30;1.80;;;21.20;99.90;;;;;;6251402;22;20031;-80
2021/07/29 07:35:54;;;;;;;2.67;2.47;;;21.10;99.90;;;;;;6249662;22;20023;-80
2021/07/29 07:38:22;;;;;;;3.42;2.38;;;20.40;99.90;;;;;;6251163;22;20019;-80
2021/07/29 07:40:50;;;;;;;4.10;2.83;;;20.00;99.90;;;;;;6275685;22;20568;-80
2021/07/29 07:43:18;;;;;;;3.78;2.90;;;19.90;99.90;;;;;;6309826;22;20011;-80
2021/07/29 07:45:48;;;;;;;3.00;2.70;;;19.90;99.90;;;;;;6287600;22;20019;-80
2021/07/29 07:48:17;;;;;;;2.58;2.05;;;20.00;99.90;;;;;;6306381;22;20094;-81
2021/07/29 07:50:44;;;;;;;3.00;2.40;;;20.00;99.90;;;;;;6260385;22;20022;-80
2021/07/29 07:53:12;;;;;;;3.40;2.22;;;20.00;99.90;;;;;;6317295;22;20014;-80
2021/07/29 07:55:40;;;;;;;2.97;1.63;;;19.60;99.90;;;;;;6311123;22;20022;-80
2021/07/29 07:58:08;;;;;;;4.53;2.90;;;19.50;99.90;;;;;;6308099;22;20350;-80
2021/07/29 08:00:36;;;;;;;3.03;2.72;;;19.50;99.90;;;;;;6306688;22;20810;-80
2021/07/29 08:03:04;;;;;;;2.80;2.50;;;19.60;99.90;;;;;;6312717;22;20020;-80
2021/07/29 08:05:32;;;;;;;2.97;2.20;;;19.70;99.90;;;;;;6316225;22;20461;-79
2021/07/29 08:08:00;;;;;;;1.92;1.80;;;19.70;99.90;;;;;;6282045;22;20028;-80
2021/07/29 08:10:28;;;;;;;3.08;2.15;;;19.80;99.90;;;;;;6315644;22;20011;-80
2021/07/29 08:12:56;;;;;;;3.95;2.75;;;19.90;99.90;;;;;;6316246;22;20312;-79
2021/07/29 08:15:24;;;;;;;3.58;2.58;;;20.00;99.90;;;;;;6284825;22;20019;-80
2021/07/29 08:17:52;;;;;;;3.20;2.35;;;20.00;99.90;;;;;;6315354;22;20011;-80
2021/07/29 08:20:22;;;;;;;2.47;2.03;;;20.00;99.90;;;;;;6275994;22;20033;-80
2021/07/29 08:22:50;;;;;;;3.15;2.85;;;19.90;99.90;;;;;;6314061;22;20342;-80
2021/07/29 08:25:19;;;;;;;3.45;3.15;;;20.00;99.90;;;;;;6315791;22;20469;-80
2021/07/29 08:27:48;;;;;;;6.10;3.63;;;20.00;99.90;;;;;;6307290;22;20028;-80
2021/07/29 08:30:16;;;;;;;3.42;2.85;;;20.00;99.90;;;;;;6314514;22;20015;-80
2021/07/29 08:32:44;;;;;;;4.13;2.33;;;20.10;99.90;;;;;;6301818;22;20027;-81
2021/07/29 08:35:12;;;;;;;3.15;2.85;;;20.20;99.90;;;;;;6252208;22;20446;-81
2021/07/29 08:37:44;;;;;;;6.00;2.85;;;20.10;99.90;;;;;;6277491;22;20019;-80
2021/07/29 08:40:16;;;;;;;2.42;1.83;;;20.10;99.90;;;;;;6305015;22;20030;-80
2021/07/29 08:42:48;;;;;;;2.92;1.75;;;20.20;99.90;;;;;;6276728;22;20026;-80
2021/07/29 08:45:15;;;;;;;4.57;2.40;;;20.30;99.90;;;;;;6316672;22;20737;-80
2021/07/29 08:47:44;;;;;;;4.18;2.63;;;20.30;99.90;;;;;;6281924;22;20034;-81
2021/07/29 08:50:13;;;;;;;2.75;2.40;;;20.30;99.90;;;;;;6316488;22;20435;-82
2021/07/29 08:52:41;;;;;;;3.15;1.95;;;20.30;99.90;;;;;;6305667;22;20027;-81
2021/07/29 08:55:09;;;;;;;3.83;2.45;;;20.10;99.90;;;;;;6312683;22;20026;-83
2021/07/29 08:57:40;;;;;;;3.45;3.10;;;20.00;99.90;;;;;;6276733;22;20027;-83
2021/07/29 09:00:09;;;;;;;;;;;19.90;99.90;;;;;;6281206;22;20074;-84
2021/07/29 09:02:37;;;;;;;2.55;2.30;;;19.90;99.90;;;;;;6286034;22;19937;-83
2021/07/29 09:05:05;;;;;;;2.47;2.28;;;20.00;99.90;;;;;;6289026;22;20019;-83
2021/07/29 09:07:33;;;;;;;4.72;2.53;;;20.20;99.90;;;;;;6226509;22;20481;-83
2021/07/29 09:10:04;;;;;;;14.93;3.80;;;20.40;99.90;;;;;;6314845;22;20014;-80
2021/07/29 09:12:32;;;;;;;2.72;2.35;;;20.50;99.90;;;;;;6278683;22;20449;-81
2021/07/29 09:15:18;;;;;;;3.47;2.67;;;20.50;99.90;;;;;;6313277;22;20015;-80
2021/07/29 09:17:46;;;;;;;2.75;2.00;;;20.50;99.90;;;;;;6313142;22;20011;-80
2021/07/29 09:20:19;;;;;;;7.43;2.15;;;20.60;99.90;;;;;;6275558;22;20442;-80
2021/07/29 09:22:50;;;;;;;3.10;2.72;;;20.60;99.90;;;;;;6276797;22;20062;-80
2021/07/29 09:25:19;;;;;;;3.45;2.42;;;20.60;99.90;;;;;;6289022;22;20011;-80
2021/07/29 09:27:50;;;;;;;4.35;3.33;;;20.60;99.90;;;;;;6303683;22;20027;-80
2021/07/29 09:30:23;;;;;;;2.55;2.05;;;20.70;99.90;;;;;;6315847;22;20011;-80
2021/07/29 09:33:04;;;;;;;3.58;3.13;;;20.80;99.90;;;;;;6302404;22;20020;-80
2021/07/29 09:35:37;;;;;;;3.22;2.47;;;20.70;99.90;;;;;;6283188;22;20346;-80
2021/07/29 09:38:09;;;;;;;3.35;2.92;;;20.80;99.90;;;;;;6289135;22;20011;-80
2021/07/29 09:40:45;;;;;;;4.57;3.45;;;20.90;99.90;;;;;;6304751;22;20374;-80
2021/07/29 09:43:16;;;;;;;4.97;3.17;;;21.10;99.90;;;;;;6275773;22;20027;-79
2021/07/29 09:45:54;;;;;;;2.95;2.67;;;21.40;99.90;;;;;;6252791;22;20030;-80
2021/07/29 09:48:23;;;;;;;4.88;2.85;;;21.30;99.90;;;;;;6278873;22;20030;-80
2021/07/29 09:50:55;;;;;;;26.92;3.63;;;21.10;99.90;;;;;;6251228;22;20030;-80
2021/07/29 09:53:23;;;;;;;4.20;3.30;;;21.00;99.90;;;;;;6315553;22;20011;-80
2021/07/29 09:55:51;;;;;;;3.30;2.15;;;21.10;99.90;;;;;;6280399;22;20027;-80
2021/07/29 09:58:19;;;;;;;2.50;2.30;;;21.40;99.90;;;;;;6307506;22;20019;-80
2021/07/29 10:00:47;;;;;;;4.68;3.35;;;21.20;99.90;;;;;;6276295;22;20031;-81
2021/07/29 10:03:20;;;;;;;3.15;2.30;;;21.00;99.90;;;;;;6305683;22;20015;-81
2021/07/29 10:05:53;;;;;;;3.53;3.08;;;20.70;99.90;;;;;;6315782;22;20323;-81
2021/07/29 10:08:41;;;;;;;3.13;2.88;;;20.90;99.90;;;;;;6306455;22;20015;-81
2021/07/29 10:11:15;;;;;;;4.38;3.45;;;21.10;99.90;;;;;;6311515;22;20046;-80
2021/07/29 10:13:43;;;;;;;2.90;2.70;;;21.30;99.90;;;;;;6288782;22;20015;-80
2021/07/29 10:16:37;;;;;;;4.15;2.92;;;21.40;99.90;;;;;;6307121;22;20027;-80
2021/07/29 10:19:06;;;;;;;2.63;2.42;;;21.50;99.90;;;;;;6304646;22;20018;-80
2021/07/29 10:21:37;;;;;;;4.03;3.00;;;21.60;99.90;;;;;;6315227;22;20011;-80
2021/07/29 10:24:05;;;;;;;;;;;21.70;99.90;;;;;;6251919;22;20023;-80
2021/07/29 10:26:54;;;;;;;6.47;2.80;;;22.00;99.90;;;;;;6276206;22;19915;-80
2021/07/29 10:29:25;;;;;;;4.60;3.03;;;22.30;99.90;;;;;;6306112;22;20026;-80
2021/07/29 10:32:12;;;;;;;4.40;4.00;;;22.20;99.90;;;;;;6276648;22;20023;-82
2021/07/29 10:34:40;;;;;;;3.10;2.30;;;21.90;99.90;;;;;;6314627;22;20330;-80
2021/07/29 10:37:09;;;;;;;7.57;3.10;;;21.80;99.90;;;;;;6277063;22;20020;-81
2021/07/29 10:40:00;;;;;;;5.18;2.33;;;21.80;99.90;;;;;;6309474;22;20023;-79
2021/07/29 10:42:28;;;;;;;4.05;3.75;;;21.70;99.90;;;;;;6314729;22;20019;-83
2021/07/29 10:44:57;;;;;;;4.70;2.80;;;21.40;99.90;;;;;;6288592;22;20331;-81
2021/07/29 10:47:40;;;;;;;4.00;2.65;;;21.40;99.90;;;;;;6310537;22;20339;-80
2021/07/29 10:50:09;;;;;;;2.72;2.53;;;21.60;99.90;;;;;;6313707;22;20070;-80
2021/07/29 10:52:38;;;;;;;3.40;2.72;;;21.60;99.90;;;;;;6305250;22;20023;-80
2021/07/29 10:55:08;;;;;;;2.83;2.40;;;21.50;99.90;;;;;;6311275;22;20027;-80
2021/07/29 10:57:37;;;;;;;4.97;3.45;;;21.30;99.90;;;;;;6282380;22;20015;-80
2021/07/29 11:00:07;;;;;;;8.50;3.70;;;21.30;99.90;;;;;;6279822;22;20046;-80
2021/07/29 11:02:44;;;;;;;2.67;2.47;;;21.60;99.90;;;;;;6285426;22;20053;-80
2021/07/29 11:05:38;;;;;;;7.30;3.60;;;21.80;99.90;;;;;;6292523;22;20015;-80
2021/07/29 11:08:06;;;;;;;6.10;3.67;;;21.90;99.90;;;;;;6307914;22;20327;-78
2021/07/29 11:10:35;;;;;;;3.72;2.63;;;21.70;99.90;;;;;;6314492;22;20461;-79
2021/07/29 11:13:04;;;;;;;3.58;3.10;;;21.70;99.90;;;;;;6314958;22;20015;-79
2021/07/29 11:15:36;;;;;;;3.10;2.50;;;22.10;99.90;;;;;;6310490;22;20015;-79
2021/07/29 11:18:09;;;;;;;3.72;2.90;;;22.20;99.90;;;;;;6315191;22;20011;-80
2021/07/29 11:20:37;;;;;;;3.15;2.65;;;22.10;99.90;;;;;;6277297;22;20023;-81
2021/07/29 11:23:04;;;;;;;4.10;3.10;;;22.20;99.90;;;;;;6285314;22;20019;-79
2021/07/29 11:25:33;;;;;;;8.07;3.17;;;22.00;99.90;;;;;;6315431;22;20022;-79
2021/07/29 11:28:12;;;;;;;2.95;2.65;;;21.80;99.90;;;;;;6255243;22;20446;-78
2021/07/29 11:30:42;;;;;;;4.13;2.85;;;21.90;99.90;;;;;;6313718;22;20007;-80
2021/07/29 11:33:24;;;;;;;3.72;3.17;;;22.20;99.90;;;;;;6315161;22;20015;-80
2021/07/29 11:35:53;;;;;;;3.13;2.58;;;22.40;99.90;;;;;;6281278;22;20023;-80
2021/07/29 11:38:24;;;;;;;3.03;2.72;;;22.40;99.90;;;;;;6226930;22;20023;-80
2021/07/29 11:41:03;;;;;;;2.92;2.65;;;22.50;99.90;;;;;;6304022;22;20019;-79
2021/07/29 11:43:33;;;;;;;10.02;4.60;;;22.60;99.90;;;;;;6304569;22;20027;-80
2021/07/29 11:46:11;;;;;;;3.22;2.70;;;22.70;99.90;;;;;;6315329;22;20018;-80
2021/07/29 11:48:39;;;;;;;3.45;3.15;;;22.40;99.90;;;;;;6278142;22;20034;-80
2021/07/29 11:51:17;;;;;;;3.10;2.63;;;22.40;99.90;;;;;;6311463;22;20351;-81
2021/07/29 11:53:45;;;;;;;3.97;3.53;;;22.60;99.90;;;;;;6315628;22;20011;-81
2021/07/29 11:56:14;;;;;;;3.47;2.97;;;23.00;99.90;;;;;;6276514;22;20035;-81
2021/07/29 11:58:57;;;;;;;3.78;2.78;;;23.10;99.90;;;;;;6304664;22;20030;-81
2021/07/29 12:01:25;;;;;;;2.97;2.33;;;22.90;99.90;;;;;;6287659;22;20015;-81
2021/07/29 12:03:55;;;;;;;3.90;3.42;;;22.80;99.90;;;;;;6308848;22;20374;-81
2021/07/29 12:06:25;;;;;;;2.73;2.10;;;23.00;99.90;;;;;;6304270;22;20327;-81
2021/07/29 12:08:54;;;;;;;5.18;3.08;;;23.00;99.90;;;;;;6276637;22;20023;-82
2021/07/29 12:11:28;;;;;;;2.72;2.47;;;23.10;99.90;;;;;;6310224;22;20325;-81
2021/07/29 12:13:56;;;;;;;3.65;2.70;;;23.30;99.90;;;;;;6315577;22;20015;-81
2021/07/29 12:16:43;;;;;;;3.70;2.60;;;23.30;99.90;;;;;;6305843;22;20351;-80
2021/07/29 12:19:11;;;;;;;3.08;2.40;;;23.30;99.90;;;;;;6311959;22;20015;-79
2021/07/29 12:21:39;;;;;;;2.92;2.38;;;22.90;99.90;;;;;;6314887;22;20617;-81
2021/07/29 12:24:07;;;;;;;5.20;2.85;;;22.60;99.90;;;;;;6307788;22;20019;-81
2021/07/29 12:26:34;;;;;;;2.83;2.22;;;22.50;99.90;;;;;;6313864;22;20016;-81
2021/07/29 12:29:08;;;;;;;3.45;2.63;;;22.80;99.90;;;;;;6315608;22;20011;-81
2021/07/29 12:31:44;;;;;;;3.50;3.15;;;23.10;99.90;;;;;;6282143;22;20034;-80
2021/07/29 12:34:12;;;;;;;3.58;2.72;;;23.20;99.90;;;;;;6315005;22;20012;-81
2021/07/29 12:36:47;;;;;;;3.58;3.28;;;23.30;99.90;;;;;;6305199;22;20509;-81
2021/07/29 12:39:17;;;;;;;3.53;2.80;;;23.30;99.90;;;;;;6312794;22;20011;-80
2021/07/29 12:41:47;;;;;;;3.72;3.30;;;23.10;99.90;;;;;;6253403;22;20015;-81
2021/07/29 12:44:19;;;;;;;4.57;2.83;;;22.80;99.90;;;;;;6308901;22;20026;-81
2021/07/29 12:46:48;;;;;;;2.83;2.63;;;22.50;99.90;;;;;;6286629;22;20241;-80
2021/07/29 12:49:18;;;;;;;6.90;3.63;;;22.30;99.90;;;;;;6317087;22;20018;-81
2021/07/29 12:51:47;;;;;;;3.42;2.67;;;22.30;99.90;;;;;;6310495;22;20023;-81
2021/07/29 12:54:17;;;;;;;3.78;3.30;;;22.30;99.90;;;;;;6289775;22;20008;-81
2021/07/29 12:57:01;;;;;;;3.90;3.17;;;22.40;99.90;;;;;;6306250;22;20015;-81
2021/07/29 12:59:29;;;;;;;3.03;2.72;;;22.50;99.90;;;;;;6312193;22;20022;-81
2021/07/29 13:01:56;;;;;;;3.83;3.15;;;22.60;99.90;;;;;;6277909;22;20077;-80
2021/07/29 13:04:26;;;;;;;3.50;3.20;;;22.60;99.90;;;;;;6277578;22;20019;-80
2021/07/29 13:06:54;;;;;;;4.45;3.00;;;22.60;99.90;;;;;;6313865;22;20023;-80
2021/07/29 13:09:22;;;;;;;3.58;2.78;;;22.60;99.90;;;;;;6316757;22;20015;-80
2021/07/29 13:11:53;;;;;;;3.55;2.80;;;22.50;99.90;;;;;;6309489;22;20027;-80
2021/07/29 13:14:21;;;;;;;3.97;2.85;;;22.80;99.90;;;;;;6316708;22;20015;-80
2021/07/29 13:16:49;;;;;;;4.03;3.10;;;23.20;99.90;;;;;;6305553;22;20023;-80
2021/07/29 13:19:17;;;;;;;3.22;2.92;;;23.10;99.90;;;;;;6277761;22;20343;-80
2021/07/29 13:21:44;;;;;;;3.15;2.85;;;23.00;99.90;;;;;;6264244;22;20318;-80
2021/07/29 13:24:12;;;;;;;3.75;2.60;;;22.90;99.90;;;;;;6251413;22;20027;-80
2021/07/29 13:26:41;;;;;;;3.60;3.25;;;22.90;99.90;;;;;;6252563;22;20015;-80
2021/07/29 13:29:09;;;;;;;3.83;3.53;;;23.10;99.90;;;;;;6253021;22;20015;-80